Time;durP1;ratioP1;P1;durP2;ratioP2;P2;SDS_P1;SDS_P2;PMS_P1;PMS_P2;Temp;Humidity;BMP_temperature;BMP_pressure;BME280_temperature;BME280_humidity;BME280_pressure;Samples;Min_cycle;Max_cycle;Signal;HPM_P1;HPM_P2
2022/09/26 00:00:32;;;;;;;3.09;2.87;;;;;;;12.34;60.30;100896.18;463698;114;922559;-77
2022/09/26 00:01:37;;;;;;;3.08;2.82;;;;;;;12.36;60.31;100893.20;463734;113;923018;-76
2022/09/26 00:02:40;;;;;;;3.75;3.13;;;;;;;12.35;60.28;100889.62;463502;113;922908;-77
2022/09/26 00:03:46;;;;;;;3.91;2.90;;;;;;;12.35;60.31;100897.02;463663;114;922963;-77
2022/09/26 00:04:49;;;;;;;4.80;2.87;;;;;;;12.35;60.39;100891.55;463430;114;922672;-77
2022/09/26 00:05:52;;;;;;;2.87;2.67;;;;;;;12.35;60.44;100892.36;463648;113;922520;-77
2022/09/26 00:06:55;;;;;;;3.19;2.83;;;;;;;12.35;60.42;100892.36;457873;116;922612;-76
2022/09/26 00:07:59;;;;;;;3.09;2.80;;;;;;;12.36;60.52;100894.05;451249;116;922845;-76
2022/09/26 00:09:02;;;;;;;3.90;2.83;;;;;;;12.37;60.47;100889.41;457827;116;922880;-77
2022/09/26 00:10:06;;;;;;;4.29;2.72;;;;;;;12.37;60.45;100889.41;457995;116;922874;-75
2022/09/26 00:11:11;;;;;;;3.39;3.09;;;;;;;12.36;60.48;100890.47;457888;116;922568;-76
2022/09/26 00:12:15;;;;;;;3.26;2.96;;;;;;;12.36;60.62;100888.58;457792;116;922574;-77
2022/09/26 00:13:18;;;;;;;3.02;2.73;;;;;;;12.38;60.73;100888.36;457913;116;922765;-76
2022/09/26 00:14:24;;;;;;;3.09;2.83;;;;;;;12.39;60.78;100887.31;457943;116;922465;-76
2022/09/26 00:15:27;;;;;;;2.78;2.53;;;;;;;12.39;60.81;100893.63;458697;114;922586;-76
2022/09/26 00:16:33;;;;;;;3.07;2.87;;;;;;;12.41;60.96;100893.38;462964;114;922558;-76
2022/09/26 00:17:36;;;;;;;3.08;2.82;;;;;;;12.42;60.92;100893.17;463586;114;922527;-75
2022/09/26 00:18:39;;;;;;;3.27;2.98;;;;;;;12.42;60.89;100889.59;463672;113;922993;-76
2022/09/26 00:19:42;;;;;;;3.14;2.94;;;;;;;12.41;60.89;100888.75;463705;114;923003;-76
2022/09/26 00:20:46;;;;;;;2.83;2.58;;;;;;;12.41;60.96;100891.48;463615;113;922953;-75
2022/09/26 00:21:49;;;;;;;4.55;2.95;;;;;;;12.42;61.04;100892.33;463603;114;922484;-77
2022/09/26 00:22:52;;;;;;;3.41;3.10;;;;;;;12.41;61.07;100885.17;463641;114;922481;-77
2022/09/26 00:23:56;;;;;;;2.97;2.72;;;;;;;12.42;61.14;100887.70;463713;114;922551;-77
2022/09/26 00:24:59;;;;;;;4.18;3.16;;;;;;;12.43;61.19;100888.55;463508;113;922438;-77
2022/09/26 00:26:03;;;;;;;3.08;2.83;;;;;;;12.45;61.25;100890.02;463691;114;922934;-74
2022/09/26 00:27:06;;;;;;;3.38;3.06;;;;;;;12.44;61.32;100885.59;463615;114;922462;-77
2022/09/26 00:28:09;;;;;;;3.31;3.01;;;;;;;12.45;61.24;100891.91;463690;114;922605;-77
2022/09/26 00:29:12;;;;;;;3.19;2.92;;;;;;;12.45;61.33;100890.02;463665;114;922476;-77
2022/09/26 00:30:17;;;;;;;2.72;2.53;;;;;;;12.45;61.31;100879.07;465316;113;922537;-77
2022/09/26 00:31:23;;;;;;;3.50;3.08;;;;;;;12.46;61.43;100890.83;463218;114;930370;-77
2022/09/26 00:32:27;;;;;;;3.57;3.05;;;;;;;12.46;61.38;100883.45;457472;116;923022;-77
2022/09/26 00:33:30;;;;;;;3.87;3.16;;;;;;;12.47;61.39;100887.03;457884;116;923036;-75
2022/09/26 00:34:33;;;;;;;3.27;3.02;;;;;;;12.46;61.44;100880.73;466010;113;922809;-78
2022/09/26 00:35:36;;;;;;;3.20;2.91;;;;;;;12.46;61.27;100880.73;465986;114;922753;-77
2022/09/26 00:36:39;;;;;;;3.66;3.37;;;;;;;12.46;61.38;100883.45;466084;114;922517;-74
2022/09/26 00:37:41;;;;;;;3.27;3.01;;;;;;;12.46;61.35;100882.62;466043;114;923095;-77
2022/09/26 00:38:45;;;;;;;3.55;3.25;;;;;;;12.46;61.44;100888.09;466038;114;922601;-78
2022/09/26 00:39:48;;;;;;;3.69;3.36;;;;;;;12.45;61.41;100881.81;465910;114;923060;-77
2022/09/26 00:40:51;;;;;;;3.52;3.22;;;;;;;12.43;61.41;100880.34;466020;114;922880;-77
2022/09/26 00:41:54;;;;;;;3.47;3.17;;;;;;;12.42;61.21;100881.39;466103;114;922657;-77
2022/09/26 00:42:58;;;;;;;4.20;3.90;;;;;;;12.40;61.29;100878.05;466041;114;922573;-77
2022/09/26 00:44:01;;;;;;;4.32;3.69;;;;;;;12.40;61.31;100880.79;465966;114;923055;-77
2022/09/26 00:45:04;;;;;;;3.47;3.21;;;;;;;12.38;61.34;100880.16;465964;112;930443;-77
2022/09/26 00:46:29;;;;;;;5.35;3.84;;;;;;;12.38;61.45;100875.53;465905;114;923075;-77
2022/09/26 00:47:47;;;;;;;4.49;4.09;;;;;;;12.39;61.45;100879.11;465787;114;930564;-76
2022/09/26 00:49:01;;;;;;;4.52;3.59;;;;;;;12.37;61.55;100870.27;465797;114;922509;-77
2022/09/26 00:50:13;;;;;;;3.41;3.14;;;;;;;12.36;61.51;100876.80;456937;116;923100;-77
2022/09/26 00:51:16;;;;;;;3.80;3.44;;;;;;;12.33;61.54;100877.25;458990;114;923091;-77
2022/09/26 00:52:25;;;;;;;4.24;3.73;;;;;;;12.32;61.63;100873.67;462359;114;922725;-76
2022/09/26 00:53:32;;;;;;;3.84;3.54;;;;;;;12.31;61.71;100868.41;457756;116;922540;-76
2022/09/26 00:54:39;;;;;;;3.82;3.45;;;;;;;12.31;61.75;100868.41;457640;116;923008;-77
2022/09/26 00:55:49;;;;;;;5.16;3.33;;;;;;;12.32;61.88;100872.83;457745;116;923160;-77
2022/09/26 00:56:55;;;;;;;3.96;3.66;;;;;;;12.33;62.01;100872.62;457391;116;922650;-77
2022/09/26 00:58:03;;;;;;;3.99;3.63;;;;;;;12.34;62.15;100871.56;457784;116;922571;-77
2022/09/26 00:59:09;;;;;;;3.87;3.57;;;;;;;12.37;62.20;100875.74;457584;116;922999;-76
2022/09/26 01:00:16;;;;;;;3.98;3.66;;;;;;;12.38;62.18;100875.53;457563;116;922530;-76
2022/09/26 01:01:19;;;;;;;3.81;3.52;;;;;;;12.40;62.16;100880.79;457774;116;922692;-77
2022/09/26 01:02:24;;;;;;;3.96;3.59;;;;;;;12.40;62.09;100873.43;457872;116;923110;-76
2022/09/26 01:03:29;;;;;;;3.97;3.68;;;;;;;12.40;62.05;100878.90;457751;114;922565;-77
2022/09/26 01:04:37;;;;;;;3.62;3.32;;;;;;;12.39;61.98;100871.75;457741;116;923473;-76
2022/09/26 01:05:40;;;;;;;3.39;3.11;;;;;;;12.39;61.95;100873.64;457792;116;923072;-76
2022/09/26 01:06:44;;;;;;;4.96;3.81;;;;;;;12.40;61.96;100880.79;457988;116;922520;-76
2022/09/26 01:07:48;;;;;;;3.81;3.22;;;;;;;12.39;62.04;100874.48;457792;116;922981;-76
2022/09/26 01:09:02;;;;;;;4.04;3.74;;;;;;;12.40;62.09;100883.52;457825;116;930536;-76
2022/09/26 01:10:06;;;;;;;3.96;3.47;;;;;;;12.41;62.18;100877.81;457746;116;923202;-77
2022/09/26 01:11:14;;;;;;;3.46;3.25;;;;;;;12.42;62.22;100875.92;457881;116;922812;-76
2022/09/26 01:12:19;;;;;;;3.54;3.21;;;;;;;12.43;62.27;100869.40;457509;116;923021;-76
2022/09/26 01:13:23;;;;;;;3.63;3.33;;;;;;;12.44;62.25;100866.45;457762;116;922541;-77
2022/09/26 01:14:27;;;;;;;3.51;3.22;;;;;;;12.45;62.24;100864.56;457869;116;922584;-77
2022/09/26 01:15:30;;;;;;;4.09;3.79;;;;;;;12.46;62.24;100869.78;459363;114;922434;-76
2022/09/26 01:16:33;;;;;;;3.63;3.33;;;;;;;12.47;62.31;100865.16;466090;114;923323;-76
2022/09/26 01:17:38;;;;;;;3.72;3.42;;;;;;;12.48;62.29;100861.38;465993;114;922514;-77
2022/09/26 01:18:43;;;;;;;3.42;3.13;;;;;;;12.49;62.33;100863.89;465793;114;930544;-76
2022/09/26 01:19:58;;;;;;;3.22;2.94;;;;;;;12.50;62.21;100867.47;465963;114;922468;-76
2022/09/26 01:21:16;;;;;;;3.91;3.54;;;;;;;12.51;62.07;100866.41;460434;114;922985;-77
2022/09/26 01:22:57;;;;;;;2.99;2.79;;;;;;;12.50;62.00;100871.05;465438;114;922790;-76
2022/09/26 01:24:32;;;;;;;2.97;2.73;;;;;;;12.48;61.82;100869.58;465903;114;922497;-77
2022/09/26 01:26:13;;;;;;;3.17;2.88;;;;;;;12.46;61.75;100872.52;465885;114;922561;-76
2022/09/26 01:27:34;;;;;;;3.46;3.16;;;;;;;12.43;61.48;100880.34;465860;114;922878;-76
2022/09/26 01:29:14;;;;;;;3.08;2.74;;;;;;;12.39;61.26;100881.84;465835;114;922893;-76
2022/09/26 01:30:20;;;;;;;3.19;2.51;;;;;;;12.36;61.33;100880.38;463645;114;922510;-76
2022/09/26 01:33:36;;;;;;;3.37;3.07;;;;;;;12.35;61.43;100877.87;457617;116;922511;-76
2022/09/26 01:34:55;;;;;;;3.67;2.66;;;;;;;12.36;61.31;100887.73;438519;116;930889;-76
2022/09/26 01:36:19;;;;;;;2.77;2.51;;;;;;;12.34;61.32;100874.30;457085;116;923298;-77
2022/09/26 01:37:38;;;;;;;3.00;2.79;;;;;;;12.34;61.41;100874.30;457573;116;922878;-77
2022/09/26 01:38:54;;;;;;;3.00;2.59;;;;;;;12.35;61.48;100878.69;447521;116;923153;-76
2022/09/26 01:40:04;;;;;;;3.02;2.82;;;;;;;12.36;61.45;100876.80;457839;116;922488;-76
2022/09/26 01:41:28;;;;;;;3.84;2.89;;;;;;;12.36;61.39;100874.90;457800;116;922680;-75
2022/09/26 01:42:53;;;;;;;3.32;2.60;;;;;;;12.37;61.30;100873.84;457743;116;923089;-76
2022/09/26 01:44:19;;;;;;;3.08;2.70;;;;;;;12.38;61.23;100861.86;457828;116;922553;-76
2022/09/26 01:45:26;;;;;;;2.75;2.55;;;;;;;12.39;61.30;100868.17;457780;116;923157;-76
2022/09/26 01:46:48;;;;;;;2.99;2.76;;;;;;;12.39;61.36;100868.17;457091;116;922577;-75
2022/09/26 01:48:06;;;;;;;2.58;2.38;;;;;;;12.41;61.36;100866.03;457830;116;922553;-76
2022/09/26 01:49:32;;;;;;;3.24;2.53;;;;;;;12.41;61.33;100864.14;457663;116;923040;-76
2022/09/26 01:50:51;;;;;;;2.91;2.71;;;;;;;12.43;61.22;100864.77;457739;116;922621;-76
2022/09/26 01:52:04;;;;;;;2.85;2.65;;;;;;;12.44;61.14;100860.14;458081;115;922929;-75
2022/09/26 01:53:10;;;;;;;2.77;2.56;;;;;;;12.44;61.12;100863.72;461567;115;922496;-74
2022/09/26 01:54:20;;;;;;;2.66;2.46;;;;;;;12.45;61.04;100861.83;453451;117;923421;-74
2022/09/26 01:55:39;;;;;;;3.23;2.78;;;;;;;12.45;60.84;100853.62;454568;115;922791;-77
2022/09/26 01:56:45;;;;;;;2.97;2.77;;;;;;;12.45;60.82;100859.93;461610;115;923342;-74
2022/09/26 01:57:54;;;;;;;3.17;2.68;;;;;;;12.45;60.80;100859.93;461533;115;922478;-75
2022/09/26 01:59:01;;;;;;;2.50;2.29;;;;;;;12.45;60.84;100861.83;460390;115;923074;-77
2022/09/26 02:00:07;;;;;;;3.36;2.88;;;;;;;12.47;60.85;100857.80;459805;115;922522;-75
2022/09/26 02:01:15;;;;;;;2.86;2.61;;;;;;;12.48;60.78;100851.27;457109;116;922549;-76
2022/09/26 02:02:25;;;;;;;2.58;2.38;;;;;;;12.50;60.72;100848.33;449832;118;922448;-75
2022/09/26 02:03:31;;;;;;;2.94;2.73;;;;;;;12.53;60.77;100856.08;450664;116;923171;-76
2022/09/26 02:04:38;;;;;;;2.77;2.56;;;;;;;12.54;60.77;100849.55;457509;116;923508;-76
2022/09/26 02:05:45;;;;;;;2.92;2.71;;;;;;;12.56;60.76;100861.13;457782;116;922435;-76
2022/09/26 02:06:57;;;;;;;3.03;2.73;;;;;;;12.58;60.65;100848.04;457792;116;923060;-76
2022/09/26 02:08:13;;;;;;;2.51;2.31;;;;;;;12.58;60.64;100850.77;457307;116;922978;-76
2022/09/26 02:09:20;;;;;;;3.09;2.81;;;;;;;12.58;60.65;100850.77;457760;116;923030;-77
2022/09/26 02:10:42;;;;;;;2.81;2.59;;;;;;;12.58;60.65;100855.41;457684;116;922513;-76
2022/09/26 02:11:48;;;;;;;2.91;2.68;;;;;;;12.58;60.64;100849.94;457673;116;923013;-76
2022/09/26 02:12:55;;;;;;;2.99;2.44;;;;;;;12.56;60.68;100849.34;457796;116;922847;-76
2022/09/26 02:14:04;;;;;;;3.71;2.49;;;;;;;12.56;60.66;100846.60;457818;116;923010;-75
2022/09/26 02:15:14;;;;;;;3.28;2.49;;;;;;;12.55;60.64;100848.50;457809;116;922926;-77
2022/09/26 02:16:21;;;;;;;2.61;2.41;;;;;;;12.55;60.63;100845.76;463423;114;922562;-77
2022/09/26 02:17:29;;;;;;;3.23;2.68;;;;;;;12.53;60.55;100853.34;453941;114;923436;-77
2022/09/26 02:18:36;;;;;;;4.06;2.72;;;;;;;12.53;60.47;100847.87;463474;114;922440;-76
2022/09/26 02:19:55;;;;;;;4.06;2.91;;;;;;;12.53;60.47;100845.97;463507;114;922547;-77
2022/09/26 02:21:05;;;;;;;3.94;3.08;;;;;;;12.53;60.49;100845.97;437592;121;922894;-76
2022/09/26 02:22:16;;;;;;;2.85;2.65;;;;;;;12.65;60.53;100848.00;477003;110;946871;-77
2022/09/26 02:23:20;;;;;;;2.57;2.39;;;;;;;12.53;60.50;100848.70;465421;114;923004;-78
2022/09/26 02:24:23;;;;;;;2.23;2.03;;;;;;;12.52;60.45;100843.45;465435;114;922931;-77
2022/09/26 02:25:27;;;;;;;3.31;2.98;;;;;;;12.51;60.46;100842.61;465429;113;922910;-77
2022/09/26 02:26:32;;;;;;;2.64;2.44;;;;;;;12.51;60.47;100841.80;457353;116;922629;-77
2022/09/26 02:27:35;;;;;;;3.93;3.02;;;;;;;12.51;60.48;100844.53;457306;116;922993;-77
2022/09/26 02:28:38;;;;;;;3.30;3.00;;;;;;;12.52;60.41;100843.45;457460;115;922547;-76
2022/09/26 02:29:42;;;;;;;2.41;2.29;;;;;;;12.52;60.45;100843.45;450131;117;922803;-77
2022/09/26 02:30:48;;;;;;;4.04;2.84;;;;;;;12.50;60.44;100840.95;449780;115;923198;-76
2022/09/26 02:31:58;;;;;;;2.80;2.58;;;;;;;12.50;60.44;100845.59;450295;115;922984;-77
2022/09/26 02:33:02;;;;;;;2.71;2.51;;;;;;;12.51;60.51;100847.27;449325;118;923230;-76
2022/09/26 02:34:06;;;;;;;3.02;2.66;;;;;;;12.51;60.43;100852.73;446112;117;922709;-76
2022/09/26 02:36:33;;;;;;;2.58;2.37;;;;;;;12.50;60.45;100851.06;452407;116;930498;-77
2022/09/26 02:37:37;;;;;;;2.93;2.59;;;;;;;12.50;60.54;100846.43;457282;116;922954;-77
2022/09/26 02:38:40;;;;;;;3.67;2.91;;;;;;;12.50;60.55;100842.85;457487;116;922902;-76
2022/09/26 02:39:55;;;;;;;2.99;2.79;;;;;;;12.51;60.44;100844.53;454974;116;922843;-76
2022/09/26 02:41:34;;;;;;;2.79;2.54;;;;;;;12.50;60.36;100848.33;457299;115;922985;-77
2022/09/26 02:42:47;;;;;;;2.87;2.66;;;;;;;12.50;60.31;100848.33;433250;122;922819;-75
2022/09/26 02:43:59;;;;;;;4.93;3.01;;;;;;;12.48;60.28;100842.22;426222;124;923343;-76
2022/09/26 02:45:26;;;;;;;3.22;2.88;;;;;;;12.46;60.33;100844.33;437928;116;923191;-77
2022/09/26 02:46:44;;;;;;;3.73;2.93;;;;;;;12.46;60.32;100845.17;457204;116;922909;-75
2022/09/26 02:47:53;;;;;;;2.87;2.67;;;;;;;12.47;60.36;100852.33;457302;115;922556;-76
2022/09/26 02:49:19;;;;;;;2.78;2.49;;;;;;;12.47;60.31;100846.02;457297;116;922550;-76
2022/09/26 02:50:37;;;;;;;2.77;2.50;;;;;;;12.48;60.23;100839.48;457288;116;922583;-76
2022/09/26 02:52:02;;;;;;;2.95;2.69;;;;;;;12.48;60.29;100842.22;457272;116;922525;-77
2022/09/26 02:53:21;;;;;;;2.97;2.39;;;;;;;12.49;60.34;100838.44;449423;118;922603;-76
2022/09/26 02:54:45;;;;;;;4.04;3.18;;;;;;;12.50;60.33;100851.06;449176;118;923109;-76
2022/09/26 02:55:51;;;;;;;2.91;2.71;;;;;;;12.50;60.19;100851.06;449337;118;930476;-76
2022/09/26 02:57:02;;;;;;;3.45;2.68;;;;;;;12.50;60.11;100851.90;449473;117;922534;-77
2022/09/26 02:58:23;;;;;;;2.40;2.20;;;;;;;12.49;60.17;100855.69;450093;117;922562;-76
2022/09/26 02:59:32;;;;;;;2.62;2.42;;;;;;;12.50;60.19;100848.33;442600;119;930292;-77
2022/09/26 03:00:54;;;;;;;3.09;2.89;;;;;;;12.49;60.14;100849.38;443586;118;922610;-77
2022/09/26 03:02:01;;;;;;;2.92;2.72;;;;;;;12.49;60.17;100846.64;440446;119;923156;-77
2022/09/26 03:03:18;;;;;;;2.88;2.63;;;;;;;12.49;60.20;100849.38;441348;118;922932;-77
2022/09/26 03:04:34;;;;;;;3.24;2.92;;;;;;;12.49;60.16;100849.38;449458;118;922562;-77
2022/09/26 03:05:40;;;;;;;3.21;2.73;;;;;;;12.50;60.16;100857.37;447839;116;923046;-75
2022/09/26 03:06:47;;;;;;;4.15;2.73;;;;;;;12.52;60.16;100859.86;449420;118;922500;-77
2022/09/26 03:07:56;;;;;;;3.05;2.78;;;;;;;12.52;60.10;100868.06;449425;118;923003;-77
2022/09/26 03:09:02;;;;;;;4.69;2.96;;;;;;;12.53;59.99;100861.55;449027;118;922949;-75
2022/09/26 03:10:08;;;;;;;3.89;2.73;;;;;;;12.52;60.01;100857.97;449451;118;922583;-75
2022/09/26 03:11:14;;;;;;;2.86;2.61;;;;;;;12.53;60.13;100856.91;449418;116;922590;-75
2022/09/26 03:12:19;;;;;;;3.48;3.18;;;;;;;12.54;60.19;100853.13;449383;118;922509;-75
2022/09/26 03:13:24;;;;;;;4.96;2.68;;;;;;;12.58;60.29;100858.14;449416;118;922511;-76
2022/09/26 03:14:30;;;;;;;2.99;2.61;;;;;;;12.58;60.30;100856.25;449419;118;922553;-76
2022/09/26 03:15:36;;;;;;;4.15;2.81;;;;;;;12.60;60.39;100858.77;449397;118;923121;-76
2022/09/26 03:16:43;;;;;;;3.47;3.09;;;;;;;12.61;60.40;100860.45;449281;118;922528;-77
2022/09/26 03:17:52;;;;;;;3.36;2.86;;;;;;;12.63;60.53;100864.63;449314;118;922974;-76
2022/09/26 03:18:59;;;;;;;3.07;2.74;;;;;;;12.64;60.56;100871.77;449419;118;922563;-76
2022/09/26 03:20:06;;;;;;;3.11;2.76;;;;;;;12.66;60.55;100869.67;449357;118;922612;-77
2022/09/26 03:21:13;;;;;;;2.97;2.61;;;;;;;12.67;60.60;100867.78;438824;120;922543;-77
2022/09/26 03:22:16;;;;;;;2.57;2.37;;;;;;;12.66;60.65;100872.41;439527;118;922984;-77
2022/09/26 03:23:24;;;;;;;3.16;2.82;;;;;;;12.65;60.58;100869.88;449454;118;922948;-77
2022/09/26 03:24:29;;;;;;;2.75;2.55;;;;;;;12.63;60.54;100867.36;449363;118;923058;-77
2022/09/26 03:25:32;;;;;;;3.03;2.75;;;;;;;12.63;60.59;100861.05;449457;118;922611;-76
2022/09/26 03:26:40;;;;;;;2.89;2.40;;;;;;;12.63;60.60;100866.52;449278;118;922568;-77
2022/09/26 03:27:44;;;;;;;2.73;2.51;;;;;;;12.61;60.60;100857.72;449445;118;922983;-77
2022/09/26 03:28:47;;;;;;;3.10;2.75;;;;;;;12.60;60.67;100856.88;449400;118;922942;-76
2022/09/26 03:29:52;;;;;;;5.08;2.90;;;;;;;12.60;60.75;100861.50;450864;116;922871;-77
2022/09/26 03:30:57;;;;;;;2.89;2.65;;;;;;;12.59;60.68;100857.92;453945;116;930530;-76
2022/09/26 03:32:05;;;;;;;2.81;2.50;;;;;;;12.60;60.71;100861.50;454051;116;922534;-75
2022/09/26 03:33:08;;;;;;;2.88;2.66;;;;;;;12.60;60.67;100861.50;453986;116;922525;-77
2022/09/26 03:34:11;;;;;;;2.56;2.36;;;;;;;12.60;60.52;100867.81;451263;116;922486;-75
2022/09/26 03:35:15;;;;;;;2.49;2.35;;;;;;;12.59;60.44;100868.03;442818;119;922638;-78
2022/09/26 03:36:21;;;;;;;2.49;2.29;;;;;;;12.58;60.44;100861.72;440587;120;922576;-78
2022/09/26 03:37:24;;;;;;;2.73;2.53;;;;;;;12.58;60.46;100863.61;443069;118;922880;-78
2022/09/26 03:38:27;;;;;;;2.92;2.68;;;;;;;12.58;60.48;100871.81;449549;117;922765;-75
2022/09/26 03:39:32;;;;;;;3.89;2.61;;;;;;;12.57;60.50;100870.97;448641;117;922639;-77
2022/09/26 03:40:36;;;;;;;2.71;2.49;;;;;;;12.58;60.44;100869.92;448625;118;930675;-77
2022/09/26 03:41:41;;;;;;;3.43;2.49;;;;;;;12.58;60.47;100872.66;447033;118;922487;-77
2022/09/26 03:42:46;;;;;;;2.96;2.61;;;;;;;12.58;60.43;100872.66;448668;117;922548;-78
2022/09/26 03:43:50;;;;;;;2.84;2.59;;;;;;;12.58;60.49;100880.86;449338;117;930739;-77
2022/09/26 03:44:53;;;;;;;2.86;2.66;;;;;;;12.58;60.39;100878.13;442740;119;922693;-77
2022/09/26 03:46:07;;;;;;;3.91;2.57;;;;;;;12.58;60.41;100878.13;434025;120;922910;-74
2022/09/26 03:47:10;;;;;;;3.09;2.64;;;;;;;12.58;60.40;100877.28;449506;116;922502;-76
2022/09/26 03:48:17;;;;;;;2.42;2.22;;;;;;;12.58;60.42;100872.66;449375;118;922709;-76
2022/09/26 03:49:20;;;;;;;2.80;2.29;;;;;;;12.59;60.48;100866.13;449559;117;923119;-76
2022/09/26 03:50:24;;;;;;;2.61;2.41;;;;;;;12.61;60.52;100860.45;449603;117;922537;-77
2022/09/26 03:51:27;;;;;;;2.90;2.37;;;;;;;12.62;60.52;100868.45;449597;118;922547;-77
2022/09/26 03:52:30;;;;;;;2.60;2.40;;;;;;;12.64;60.50;100868.20;452254;116;922754;-77
2022/09/26 03:53:34;;;;;;;2.37;2.21;;;;;;;12.64;60.53;100863.57;457437;116;922540;-76
2022/09/26 03:54:38;;;;;;;2.22;2.12;;;;;;;12.66;60.52;100864.20;457254;116;922413;-76
2022/09/26 03:55:40;;;;;;;3.01;2.40;;;;;;;12.68;60.47;100864.80;457303;115;930375;-76
2022/09/26 03:56:44;;;;;;;4.87;2.62;;;;;;;12.69;60.48;100858.27;457348;115;922551;-76
2022/09/26 03:57:47;;;;;;;2.62;2.42;;;;;;;12.71;60.48;100864.37;450326;117;923083;-76
2022/09/26 03:58:52;;;;;;;3.17;2.61;;;;;;;12.74;60.50;100860.33;449970;116;923086;-77
2022/09/26 03:59:55;;;;;;;2.42;2.22;;;;;;;12.75;60.48;100865.59;457277;116;922399;-76
2022/09/26 04:01:04;;;;;;;3.33;2.42;;;;;;;12.77;60.46;100857.17;457285;116;923314;-77
2022/09/26 04:02:08;;;;;;;2.39;2.22;;;;;;;12.78;60.42;100859.69;457032;115;922558;-76
2022/09/26 04:03:13;;;;;;;4.12;2.23;;;;;;;12.80;60.31;100863.02;450088;117;923573;-76
2022/09/26 04:04:16;;;;;;;3.27;2.57;;;;;;;12.82;60.20;100865.55;450596;116;922877;-77
2022/09/26 04:05:19;;;;;;;3.23;2.12;;;;;;;12.83;60.13;100867.23;457299;116;923006;-77
2022/09/26 04:06:22;;;;;;;2.75;2.55;;;;;;;12.83;60.08;100859.02;457287;116;922922;-77
2022/09/26 04:07:25;;;;;;;3.06;2.17;;;;;;;12.82;60.14;100860.91;457257;116;922709;-76
2022/09/26 04:08:29;;;;;;;2.59;2.35;;;;;;;12.83;60.13;100853.55;457311;116;922524;-77
2022/09/26 04:09:32;;;;;;;2.46;2.26;;;;;;;12.82;60.12;100855.44;457217;116;922613;-77
2022/09/26 04:10:35;;;;;;;2.96;2.59;;;;;;;12.83;60.06;100851.65;450236;117;930463;-78
2022/09/26 04:11:40;;;;;;;2.90;2.65;;;;;;;12.82;60.06;100858.17;443005;117;922945;-76
2022/09/26 04:12:44;;;;;;;2.31;2.12;;;;;;;12.82;60.09;100860.08;450473;116;930497;-76
2022/09/26 04:13:48;;;;;;;2.69;2.36;;;;;;;12.82;60.10;100866.39;457257;115;922437;-76
2022/09/26 04:14:53;;;;;;;2.88;2.39;;;;;;;12.84;60.07;100863.44;456822;115;922720;-77
2022/09/26 04:15:57;;;;;;;2.86;2.66;;;;;;;12.83;60.08;100859.86;452435;115;922956;-76
2022/09/26 04:17:00;;;;;;;4.24;2.48;;;;;;;12.85;59.93;100865.09;449356;118;930377;-77
2022/09/26 04:18:08;;;;;;;3.34;2.50;;;;;;;12.86;59.92;100861.30;449224;117;923037;-76
2022/09/26 04:19:13;;;;;;;3.15;2.86;;;;;;;12.86;59.91;100869.50;449399;118;922879;-76
2022/09/26 04:20:16;;;;;;;2.58;2.38;;;;;;;12.87;59.84;100868.45;449251;117;930463;-76
2022/09/26 04:21:19;;;;;;;2.87;2.67;;;;;;;12.86;59.94;100867.61;449450;117;922533;-76
2022/09/26 04:22:24;;;;;;;3.22;2.94;;;;;;;12.86;59.84;100869.50;449411;117;922900;-76
2022/09/26 04:23:28;;;;;;;3.47;3.12;;;;;;;12.84;59.76;100869.75;449367;118;922542;-76
2022/09/26 04:24:31;;;;;;;3.31;3.01;;;;;;;12.84;59.71;100867.02;449392;118;923102;-76
2022/09/26 04:25:36;;;;;;;3.16;2.85;;;;;;;12.84;59.69;100877.96;449490;117;922506;-76
2022/09/26 04:26:41;;;;;;;3.96;3.55;;;;;;;12.84;59.81;100869.75;449369;118;923031;-77
2022/09/26 04:27:44;;;;;;;4.09;3.53;;;;;;;12.84;59.70;100872.48;449331;118;923077;-77
2022/09/26 04:28:50;;;;;;;4.28;2.86;;;;;;;12.84;59.73;100867.02;449466;118;922526;-76
2022/09/26 04:29:56;;;;;;;3.02;2.82;;;;;;;12.84;59.70;100869.75;451042;117;922594;-77
2022/09/26 04:31:05;;;;;;;3.10;2.81;;;;;;;12.85;59.67;100857.72;451574;117;922641;-75
2022/09/26 04:32:08;;;;;;;3.93;2.57;;;;;;;12.85;59.63;100865.93;456677;115;922641;-75
2022/09/26 04:33:16;;;;;;;2.94;2.69;;;;;;;12.86;59.61;100866.77;448778;118;922827;-78
2022/09/26 04:34:24;;;;;;;3.70;2.52;;;;;;;12.87;59.64;100868.45;447686;118;922530;-77
2022/09/26 04:35:29;;;;;;;2.82;2.56;;;;;;;12.87;59.68;100865.72;448563;118;922560;-76
2022/09/26 04:36:33;;;;;;;3.51;2.74;;;;;;;12.88;59.67;100868.23;448704;118;922530;-76
2022/09/26 04:37:36;;;;;;;3.58;2.75;;;;;;;12.90;59.71;100860.63;448721;118;923129;-76
2022/09/26 04:38:40;;;;;;;4.63;2.99;;;;;;;12.91;59.69;100873.25;448727;118;922468;-76
2022/09/26 04:39:44;;;;;;;3.08;2.88;;;;;;;12.93;59.65;100873.88;448568;118;922849;-76
2022/09/26 04:40:48;;;;;;;2.98;2.76;;;;;;;12.94;59.51;100883.77;448662;118;922533;-76
2022/09/26 04:41:52;;;;;;;4.33;2.29;;;;;;;12.94;59.49;100881.03;448738;118;922523;-76
2022/09/26 04:42:57;;;;;;;3.24;2.94;;;;;;;12.95;59.45;100879.14;448565;118;922518;-76
2022/09/26 04:44:01;;;;;;;4.36;2.52;;;;;;;12.96;59.50;100878.05;448535;118;930380;-76
2022/09/26 04:45:05;;;;;;;3.47;2.81;;;;;;;12.96;59.49;100878.05;448620;118;930505;-77
2022/09/26 04:46:12;;;;;;;3.06;2.58;;;;;;;12.98;59.58;100877.84;448639;118;922910;-76
2022/09/26 04:47:23;;;;;;;2.89;2.22;;;;;;;13.10;59.60;100871.42;476992;110;946839;-75
2022/09/26 04:48:37;;;;;;;3.47;2.26;;;;;;;13.02;59.54;100870.84;456878;114;923200;-75
2022/09/26 04:49:48;;;;;;;2.62;2.06;;;;;;;13.03;59.56;100869.79;464746;114;923083;-76
2022/09/26 04:50:51;;;;;;;4.71;2.11;;;;;;;13.06;59.62;100872.94;462533;114;923132;-76
2022/09/26 04:51:54;;;;;;;3.04;2.39;;;;;;;13.09;59.56;100869.73;456878;116;922577;-76
2022/09/26 04:52:59;;;;;;;2.52;2.33;;;;;;;13.10;59.47;100874.16;455671;116;922488;-77
2022/09/26 04:54:02;;;;;;;3.22;2.83;;;;;;;13.12;59.47;100872.05;455529;116;924763;-76
2022/09/26 04:55:08;;;;;;;5.03;2.21;;;;;;;13.14;59.52;100875.41;454810;116;922595;-76
2022/09/26 04:56:14;;;;;;;3.52;2.38;;;;;;;13.17;59.43;100874.13;455541;116;922671;-76
2022/09/26 04:57:17;;;;;;;3.01;2.58;;;;;;;13.20;59.35;100881.89;455543;116;922694;-76
2022/09/26 04:58:22;;;;;;;2.84;2.56;;;;;;;13.22;59.28;100880.61;455600;116;922549;-76
2022/09/26 04:59:25;;;;;;;3.16;2.10;;;;;;;13.23;59.25;100870.50;455783;116;922518;-77
2022/09/26 05:00:32;;;;;;;6.34;2.62;;;;;;;13.25;59.20;100874.67;455203;116;922635;-76
2022/09/26 05:01:37;;;;;;;2.65;2.37;;;;;;;13.27;59.21;100874.45;455572;116;922517;-76
2022/09/26 05:02:44;;;;;;;2.56;2.21;;;;;;;13.29;59.19;100877.78;455590;116;923003;-76
2022/09/26 05:03:47;;;;;;;3.16;2.48;;;;;;;13.30;59.21;100874.83;455609;116;923074;-76
2022/09/26 05:04:51;;;;;;;3.71;2.71;;;;;;;13.33;59.18;100881.77;455747;116;923176;-76
2022/09/26 05:05:55;;;;;;;2.84;2.18;;;;;;;13.35;59.07;100876.89;455754;116;923058;-77
2022/09/26 05:06:58;;;;;;;5.51;2.71;;;;;;;13.35;59.05;100877.73;455602;116;922631;-76
2022/09/26 05:08:04;;;;;;;4.02;2.37;;;;;;;13.37;59.00;100874.77;455455;116;930615;-76
2022/09/26 05:09:07;;;;;;;5.32;2.28;;;;;;;13.38;58.98;100876.45;455675;116;923551;-76
2022/09/26 05:10:13;;;;;;;3.23;2.51;;;;;;;13.40;59.12;100865.28;454746;116;923062;-77
2022/09/26 05:11:18;;;;;;;3.04;2.19;;;;;;;13.43;59.21;100867.55;454873;116;922559;-77
2022/09/26 05:12:21;;;;;;;4.70;2.31;;;;;;;13.46;59.28;100876.14;455658;116;922703;-76
2022/09/26 05:13:25;;;;;;;6.16;2.54;;;;;;;13.49;59.05;100870.23;438910;120;922718;-76
2022/09/26 05:14:29;;;;;;;2.34;2.07;;;;;;;13.51;59.02;100876.30;439634;116;930614;-76